Blaine, Maine
Current Conditions -  °F | °C
As of 8:35 PM on Friday 19 Dec 2014 (Local Time) from KPQI Reporting Station
Clear Clear  
Wind Chill: 12°   Ceiling: Unl
Heat Index: 12°   Visibility: 10mi
Dew Point:   Wind: 3mph
Humidity: 85%   Direction: 210°SSW
Pressure: 30.07"   Gusts: NA
Location:  46.5°N, 67.87°W
Report Text: KPQI 200135Z AUTO 21003KT 10SM CLR M11/M13 A3007 RMK AO1
Loading
Personal Weather Stations






























Interactive Weather Map New forecast layout! Learn more

10-Day Weather Forecast

Advertisements
Track Severe Weather on mobile